createdAt,value
2022-11-17T13:34:30.426Z,12.16
2022-11-17T13:36:58.895Z,12.17
2022-11-17T13:39:27.900Z,12.24
2022-11-17T13:41:55.648Z,12.33
2022-11-17T13:44:28.348Z,12.34
2022-11-17T13:46:55.340Z,12.36
2022-11-17T13:49:51.034Z,12.34
2022-11-17T13:52:43.622Z,12.44
2022-11-17T13:55:18.770Z,12.48
2022-11-17T13:58:06.873Z,12.47
2022-11-17T14:00:34.454Z,12.42
2022-11-17T14:03:05.973Z,12.41
2022-11-17T14:05:33.764Z,12.39
2022-11-17T14:08:22.657Z,12.38
2022-11-17T14:10:49.332Z,12.38
2022-11-17T14:13:22.908Z,12.38
2022-11-17T14:15:58.949Z,12.46
2022-11-17T14:26:40.631Z,13.49
2022-11-17T14:29:11.248Z,13.08
2022-11-17T14:34:05.276Z,12.56
2022-11-17T14:36:32.672Z,12.36
2022-11-17T14:39:01.188Z,12.27
2022-11-17T14:41:27.754Z,12.14
2022-11-17T14:43:54.221Z,12.11
2022-11-17T14:46:25.922Z,12.03
2022-11-17T14:48:53.595Z,11.99
2022-11-17T14:51:20.776Z,11.96
2022-11-17T14:53:47.976Z,11.92
2022-11-17T14:56:17.852Z,11.89
2022-11-17T14:58:45.165Z,11.86
2022-11-17T15:01:15.552Z,11.85
2022-11-17T15:03:42.754Z,11.83
2022-11-17T15:06:12.122Z,11.83
2022-11-17T15:08:41.771Z,11.80
2022-11-17T15:11:15.322Z,11.80
2022-11-17T15:13:42.982Z,11.78
2022-11-17T15:16:10.458Z,11.79
2022-11-17T15:18:37.108Z,11.78
2022-11-17T15:21:08.403Z,11.77
2022-11-17T15:23:38.338Z,11.76
2022-11-17T15:26:11.424Z,11.78
2022-11-17T15:28:37.868Z,11.78
2022-11-17T15:31:10.840Z,11.78
2022-11-17T15:33:39.445Z,11.77
2022-11-17T15:36:07.258Z,11.78
2022-11-17T15:38:33.902Z,11.76
2022-11-17T15:41:00.370Z,11.76
2022-11-17T15:43:30.801Z,11.74
2022-11-17T15:46:06.288Z,11.73
2022-11-17T15:48:34.601Z,11.71
2022-11-17T15:51:05.495Z,11.69
2022-11-17T15:53:35.175Z,11.68
2022-11-17T15:56:23.210Z,11.66
2022-11-17T15:58:55.835Z,11.66
2022-11-17T16:01:29.199Z,11.66
2022-11-17T16:04:01.582Z,11.68
2022-11-17T16:06:29.842Z,11.68
2022-11-17T16:08:57.581Z,11.69
2022-11-17T16:11:25.807Z,11.72
2022-11-17T16:13:56.728Z,11.72
2022-11-17T16:16:25.363Z,11.70
2022-11-17T16:18:52.068Z,11.67
2022-11-17T16:21:18.930Z,11.69
2022-11-17T16:23:50.750Z,11.70
2022-11-17T16:26:19.293Z,11.71
2022-11-17T16:28:48.898Z,11.71
2022-11-17T16:31:20.955Z,11.68
2022-11-17T16:33:52.914Z,11.68
2022-11-17T16:36:21.543Z,11.68
2022-11-17T16:39:00.775Z,11.69
2022-11-17T16:41:31.767Z,11.70
2022-11-17T16:43:58.745Z,11.65
2022-11-17T16:46:29.163Z,11.63
2022-11-17T16:48:56.898Z,11.63
2022-11-17T16:51:23.681Z,11.60
2022-11-17T16:54:04.990Z,11.57
2022-11-17T16:56:32.104Z,11.55
2022-11-17T16:58:59.254Z,11.53
2022-11-17T17:01:30.450Z,11.49
2022-11-17T17:03:59.075Z,11.51
2022-11-17T17:06:26.308Z,11.50
2022-11-17T17:08:54.825Z,11.49
2022-11-17T17:11:21.852Z,11.48
2022-11-17T17:13:48.702Z,11.48
2022-11-17T17:16:17.561Z,11.49
2022-11-17T17:18:44.489Z,11.46
2022-11-17T17:21:17.787Z,11.47
2022-11-17T17:23:45.641Z,11.45
2022-11-17T17:26:16.759Z,11.41
2022-11-17T17:28:47.233Z,11.40
2022-11-17T17:31:20.774Z,11.40
2022-11-17T17:33:48.926Z,11.39
2022-11-17T17:36:18.136Z,11.38
2022-11-17T17:38:48.826Z,11.37
2022-11-17T17:41:19.711Z,11.36
2022-11-17T17:43:47.565Z,11.34
2022-11-17T17:46:17.739Z,11.32
2022-11-17T17:48:45.654Z,11.32
2022-11-17T17:51:15.494Z,11.30
2022-11-17T17:53:42.277Z,11.24
2022-11-17T17:56:11.660Z,11.19
2022-11-17T17:58:42.311Z,11.17
2022-11-17T18:01:14.402Z,11.15
2022-11-17T18:03:48.332Z,11.14
2022-11-17T18:06:17.349Z,11.13
2022-11-17T18:08:43.886Z,11.11
2022-11-17T18:11:13.321Z,11.11
2022-11-17T18:13:42.371Z,11.07
2022-11-17T18:16:14.869Z,11.12
2022-11-17T18:18:42.350Z,11.13
2022-11-17T18:21:14.073Z,11.11
2022-11-17T18:23:41.552Z,11.12
2022-11-17T18:26:18.327Z,11.14
2022-11-17T18:28:54.377Z,11.14
2022-11-17T18:31:22.938Z,11.18
2022-11-17T18:33:57.324Z,11.19
2022-11-17T18:36:25.063Z,11.19
2022-11-17T18:38:52.809Z,11.20
2022-11-17T18:41:20.826Z,11.23
2022-11-17T18:43:48.082Z,11.24
2022-11-17T18:46:21.397Z,11.22
2022-11-17T18:48:49.887Z,11.25
2022-11-17T18:51:19.992Z,11.25
2022-11-17T18:53:48.614Z,11.27
2022-11-17T18:56:17.548Z,11.26
2022-11-17T18:58:44.218Z,11.25
2022-11-17T19:01:14.780Z,11.24
2022-11-17T19:03:42.831Z,11.23
2022-11-17T19:06:10.241Z,11.20
2022-11-17T19:08:37.701Z,11.21
2022-11-17T19:11:06.574Z,11.19
2022-11-17T19:13:35.581Z,11.20
2022-11-17T19:16:15.193Z,11.20
2022-11-17T19:18:42.854Z,11.18
2022-11-17T19:21:12.075Z,11.19
2022-11-17T19:23:49.587Z,11.18
2022-11-17T19:26:25.133Z,11.19
2022-11-17T19:28:59.216Z,11.13
2022-11-17T19:31:26.541Z,11.12
2022-11-17T19:33:53.340Z,11.11
2022-11-17T19:36:22.605Z,11.07
2022-11-17T19:38:51.168Z,11.02
2022-11-17T19:41:20.553Z,11.06
2022-11-17T19:43:47.242Z,11.03
2022-11-17T19:46:15.978Z,11.01
2022-11-17T19:48:43.831Z,11.01
2022-11-17T19:51:25.203Z,11.00
2022-11-17T19:53:54.821Z,11.00
2022-11-17T19:56:22.521Z,10.99
2022-11-17T19:58:49.857Z,10.95
2022-11-17T20:01:18.817Z,10.94
2022-11-17T20:03:46.305Z,10.91
2022-11-17T20:06:17.502Z,10.89
2022-11-17T20:08:44.844Z,10.86
2022-11-17T20:11:33.398Z,10.84
2022-11-17T20:13:59.850Z,10.80
2022-11-17T20:16:27.392Z,10.78
2022-11-17T20:18:56.361Z,10.78
2022-11-17T20:21:23.779Z,10.77
2022-11-17T20:23:50.875Z,10.77
2022-11-17T20:26:23.347Z,10.75
2022-11-17T20:28:51.141Z,10.73
2022-11-17T20:31:21.839Z,10.69
2022-11-17T20:33:48.888Z,10.70
2022-11-17T20:36:20.426Z,10.67
2022-11-17T20:38:51.663Z,10.66
2022-11-17T20:41:20.881Z,10.63
2022-11-17T20:43:49.070Z,10.63
2022-11-17T20:46:15.491Z,10.61
2022-11-17T20:48:42.342Z,10.57
2022-11-17T20:51:17.094Z,10.56
2022-11-17T20:53:44.180Z,10.55
2022-11-17T20:56:12.417Z,10.53
2022-11-17T20:58:39.300Z,10.53
2022-11-17T21:01:14.563Z,10.50
2022-11-17T21:03:41.590Z,10.49
2022-11-17T21:06:08.376Z,10.47
2022-11-17T21:08:37.845Z,10.45
2022-11-17T21:11:08.079Z,10.43
2022-11-17T21:13:36.161Z,10.39
2022-11-17T21:16:05.706Z,10.38
2022-11-17T21:18:32.856Z,10.37
2022-11-17T21:21:00.256Z,10.37
2022-11-17T21:23:27.589Z,10.37
2022-11-17T21:25:54.525Z,10.34
2022-11-17T21:28:21.038Z,10.36
2022-11-17T21:30:47.618Z,10.35
2022-11-17T21:33:14.384Z,10.38
2022-11-17T21:35:40.900Z,10.32
2022-11-17T21:38:07.395Z,10.33
2022-11-17T21:40:34.155Z,10.33
2022-11-17T21:43:00.706Z,10.26
2022-11-17T21:45:27.240Z,10.21
2022-11-17T21:47:59.231Z,10.24
2022-11-17T21:50:26.101Z,10.23
2022-11-17T21:52:52.550Z,10.25
2022-11-17T21:55:19.108Z,10.22
2022-11-17T21:57:45.529Z,10.22
2022-11-17T22:00:12.868Z,10.20
2022-11-17T22:02:39.566Z,10.23
2022-11-17T22:05:06.535Z,10.22
2022-11-17T22:07:33.052Z,10.21
2022-11-17T22:09:59.538Z,10.21
2022-11-17T22:12:27.437Z,10.20
2022-11-17T22:14:53.932Z,10.19
2022-11-17T22:17:20.360Z,10.17
2022-11-17T22:19:46.796Z,10.16
2022-11-17T22:22:13.289Z,10.17
2022-11-17T22:24:40.185Z,10.17
2022-11-17T22:27:07.029Z,10.18
2022-11-17T22:29:33.588Z,10.16
2022-11-17T22:32:00.163Z,10.13
2022-11-17T22:34:26.652Z,10.12
2022-11-17T22:36:53.147Z,10.09
2022-11-17T22:39:20.033Z,10.11
2022-11-17T22:41:46.630Z,10.11
2022-11-17T22:44:14.599Z,10.08
2022-11-17T22:46:43.099Z,10.10
2022-11-17T22:49:10.323Z,10.06
2022-11-17T22:51:55.208Z,10.05
2022-11-17T22:54:21.686Z,10.03
2022-11-17T22:56:48.518Z,10.03
2022-11-17T22:59:15.286Z,10.02
2022-11-17T23:01:41.930Z,9.97
2022-11-17T23:04:08.435Z,9.94
2022-11-17T23:06:35.041Z,9.97
2022-11-17T23:09:01.512Z,10.01
2022-11-17T23:11:37.562Z,9.94
2022-11-17T23:14:09.848Z,9.99
2022-11-17T23:16:37.488Z,9.93
2022-11-17T23:19:04.786Z,9.99
2022-11-17T23:21:31.277Z,10.01
2022-11-17T23:23:57.947Z,9.97
2022-11-17T23:26:24.469Z,10.01
2022-11-17T23:28:51.209Z,10.00
2022-11-17T23:31:18.002Z,10.01
2022-11-17T23:33:46.903Z,10.00
2022-11-17T23:36:21.822Z,10.05
2022-11-17T23:38:50.257Z,10.10
2022-11-17T23:41:19.405Z,10.12
2022-11-17T23:43:46.285Z,10.17
2022-11-17T23:46:15.333Z,10.19
2022-11-17T23:48:42.828Z,10.21
2022-11-17T23:51:15.096Z,10.21
2022-11-17T23:53:42.389Z,10.22
2022-11-17T23:56:10.297Z,10.22
2022-11-17T23:58:37.088Z,10.21
